sensor_id;sensor_type;location;lat;lon;timestamp;temperature;humidity
51557;DHT22;38766;53.194;5.532;2023-11-19T00:00:28;12.10;99.90
51557;DHT22;38766;53.194;5.532;2023-11-19T00:02:54;12.10;99.90
51557;DHT22;38766;53.194;5.532;2023-11-19T00:05:20;12.10;99.90
51557;DHT22;38766;53.194;5.532;2023-11-19T00:07:45;12.10;99.90
51557;DHT22;38766;53.194;5.532;2023-11-19T00:10:13;12.10;99.90
51557;DHT22;38766;53.194;5.532;2023-11-19T00:12:40;12.10;99.90
51557;DHT22;38766;53.194;5.532;2023-11-19T00:15:07;12.10;99.90
51557;DHT22;38766;53.194;5.532;2023-11-19T00:17:40;12.10;99.90
51557;DHT22;38766;53.194;5.532;2023-11-19T00:20:08;12.10;99.90
51557;DHT22;38766;53.194;5.532;2023-11-19T00:22:40;12.10;99.90
51557;DHT22;38766;53.194;5.532;2023-11-19T00:25:07;12.10;99.90
51557;DHT22;38766;53.194;5.532;2023-11-19T00:27:33;12.20;99.90
51557;DHT22;38766;53.194;5.532;2023-11-19T00:29:58;12.20;99.90
51557;DHT22;38766;53.194;5.532;2023-11-19T00:32:24;12.20;99.90
51557;DHT22;38766;53.194;5.532;2023-11-19T00:34:50;12.20;99.90
51557;DHT22;38766;53.194;5.532;2023-11-19T00:37:15;12.20;99.90
51557;DHT22;38766;53.194;5.532;2023-11-19T00:39:42;12.20;99.90
51557;DHT22;38766;53.194;5.532;2023-11-19T00:42:07;12.20;99.90
51557;DHT22;38766;53.194;5.532;2023-11-19T00:44:33;12.10;99.90
51557;DHT22;38766;53.194;5.532;2023-11-19T00:46:59;12.20;99.90
51557;DHT22;38766;53.194;5.532;2023-11-19T00:49:25;12.10;99.90
51557;DHT22;38766;53.194;5.532;2023-11-19T00:51:51;12.10;99.90
51557;DHT22;38766;53.194;5.532;2023-11-19T00:54:17;12.10;99.90
51557;DHT22;38766;53.194;5.532;2023-11-19T00:56:42;12.00;99.90
51557;DHT22;38766;53.194;5.532;2023-11-19T00:59:08;12.10;99.90
51557;DHT22;38766;53.194;5.532;2023-11-19T01:01:34;12.10;99.90
51557;DHT22;38766;53.194;5.532;2023-11-19T01:03:59;11.90;99.90
51557;DHT22;38766;53.194;5.532;2023-11-19T01:06:32;12.00;99.90
51557;DHT22;38766;53.194;5.532;2023-11-19T01:08:58;12.00;99.90
51557;DHT22;38766;53.194;5.532;2023-11-19T01:11:24;12.00;99.90
51557;DHT22;38766;53.194;5.532;2023-11-19T01:13:51;11.90;99.90
51557;DHT22;38766;53.194;5.532;2023-11-19T01:16:17;12.00;99.90
51557;DHT22;38766;53.194;5.532;2023-11-19T01:18:44;11.90;99.90
51557;DHT22;38766;53.194;5.532;2023-11-19T01:21:12;12.00;99.90
51557;DHT22;38766;53.194;5.532;2023-11-19T01:23:37;11.90;99.90
51557;DHT22;38766;53.194;5.532;2023-11-19T01:26:03;11.90;99.90
51557;DHT22;38766;53.194;5.532;2023-11-19T01:28:31;11.90;99.90
51557;DHT22;38766;53.194;5.532;2023-11-19T01:30:56;11.90;99.90
51557;DHT22;38766;53.194;5.532;2023-11-19T01:33:22;11.90;99.90
51557;DHT22;38766;53.194;5.532;2023-11-19T01:35:48;11.80;99.90
51557;DHT22;38766;53.194;5.532;2023-11-19T01:38:13;11.70;99.90
51557;DHT22;38766;53.194;5.532;2023-11-19T01:40:40;11.70;99.90
51557;DHT22;38766;53.194;5.532;2023-11-19T01:43:05;11.60;99.90
51557;DHT22;38766;53.194;5.532;2023-11-19T01:45:31;11.50;99.90
51557;DHT22;38766;53.194;5.532;2023-11-19T01:48:00;11.60;99.90
51557;DHT22;38766;53.194;5.532;2023-11-19T01:50:29;11.60;99.90
51557;DHT22;38766;53.194;5.532;2023-11-19T01:52:55;11.60;99.90
51557;DHT22;38766;53.194;5.532;2023-11-19T01:55:24;11.50;99.90
51557;DHT22;38766;53.194;5.532;2023-11-19T01:57:51;11.50;99.90
51557;DHT22;38766;53.194;5.532;2023-11-19T02:00:18;11.50;99.90
51557;DHT22;38766;53.194;5.532;2023-11-19T02:02:46;11.50;99.90
51557;DHT22;38766;53.194;5.532;2023-11-19T02:05:14;11.50;99.90
51557;DHT22;38766;53.194;5.532;2023-11-19T02:07:40;11.50;99.90
51557;DHT22;38766;53.194;5.532;2023-11-19T02:10:06;11.50;99.90
51557;DHT22;38766;53.194;5.532;2023-11-19T02:12:33;11.50;99.90
51557;DHT22;38766;53.194;5.532;2023-11-19T02:14:59;11.50;99.90
51557;DHT22;38766;53.194;5.532;2023-11-19T02:17:31;11.40;99.90
51557;DHT22;38766;53.194;5.532;2023-11-19T02:19:57;11.40;99.90
51557;DHT22;38766;53.194;5.532;2023-11-19T02:22:23;11.30;99.90
51557;DHT22;38766;53.194;5.532;2023-11-19T02:24:51;11.40;99.90
51557;DHT22;38766;53.194;5.532;2023-11-19T02:27:44;11.40;99.90
51557;DHT22;38766;53.194;5.532;2023-11-19T02:30:12;11.40;99.90
51557;DHT22;38766;53.194;5.532;2023-11-19T02:32:41;11.40;99.90
51557;DHT22;38766;53.194;5.532;2023-11-19T02:35:07;11.40;99.90
51557;DHT22;38766;53.194;5.532;2023-11-19T02:37:38;11.50;99.90
51557;DHT22;38766;53.194;5.532;2023-11-19T02:40:05;11.50;99.90
51557;DHT22;38766;53.194;5.532;2023-11-19T02:42:31;11.50;99.90
51557;DHT22;38766;53.194;5.532;2023-11-19T02:44:57;11.50;99.90
51557;DHT22;38766;53.194;5.532;2023-11-19T02:47:22;11.60;99.90
51557;DHT22;38766;53.194;5.532;2023-11-19T02:49:50;11.50;99.90
51557;DHT22;38766;53.194;5.532;2023-11-19T02:52:15;11.50;99.90
51557;DHT22;38766;53.194;5.532;2023-11-19T02:54:42;11.50;99.90
51557;DHT22;38766;53.194;5.532;2023-11-19T02:57:08;11.50;99.90
51557;DHT22;38766;53.194;5.532;2023-11-19T02:59:40;11.50;99.90
51557;DHT22;38766;53.194;5.532;2023-11-19T03:02:08;11.50;99.90
51557;DHT22;38766;53.194;5.532;2023-11-19T03:04:37;11.50;99.90
51557;DHT22;38766;53.194;5.532;2023-11-19T03:07:05;11.40;99.90
51557;DHT22;38766;53.194;5.532;2023-11-19T03:09:31;11.40;99.90
51557;DHT22;38766;53.194;5.532;2023-11-19T03:11:57;11.40;99.90
51557;DHT22;38766;53.194;5.532;2023-11-19T03:14:22;11.40;99.90
51557;DHT22;38766;53.194;5.532;2023-11-19T03:16:48;11.40;99.90
51557;DHT22;38766;53.194;5.532;2023-11-19T03:19:14;11.40;99.90
51557;DHT22;38766;53.194;5.532;2023-11-19T03:21:40;11.40;99.90
51557;DHT22;38766;53.194;5.532;2023-11-19T03:24:06;11.40;99.90
51557;DHT22;38766;53.194;5.532;2023-11-19T03:26:32;11.40;99.90
51557;DHT22;38766;53.194;5.532;2023-11-19T03:28:59;11.40;99.90
51557;DHT22;38766;53.194;5.532;2023-11-19T03:31:25;11.40;99.90
51557;DHT22;38766;53.194;5.532;2023-11-19T03:33:51;11.40;99.90
51557;DHT22;38766;53.194;5.532;2023-11-19T03:36:16;11.40;99.90
51557;DHT22;38766;53.194;5.532;2023-11-19T03:38:43;11.40;99.90
51557;DHT22;38766;53.194;5.532;2023-11-19T03:41:12;11.40;99.90
51557;DHT22;38766;53.194;5.532;2023-11-19T03:43:38;11.40;99.90
51557;DHT22;38766;53.194;5.532;2023-11-19T03:46:04;11.40;99.90
51557;DHT22;38766;53.194;5.532;2023-11-19T03:48:31;11.40;99.90
51557;DHT22;38766;53.194;5.532;2023-11-19T03:50:57;11.30;99.90
51557;DHT22;38766;53.194;5.532;2023-11-19T03:53:22;11.30;99.90
51557;DHT22;38766;53.194;5.532;2023-11-19T03:55:49;11.30;99.90
51557;DHT22;38766;53.194;5.532;2023-11-19T03:58:15;11.30;99.90
51557;DHT22;38766;53.194;5.532;2023-11-19T04:00:41;11.30;99.90
51557;DHT22;38766;53.194;5.532;2023-11-19T04:03:06;11.30;99.90
51557;DHT22;38766;53.194;5.532;2023-11-19T04:05:32;11.30;99.90
51557;DHT22;38766;53.194;5.532;2023-11-19T04:07:58;11.20;99.90
51557;DHT22;38766;53.194;5.532;2023-11-19T04:10:23;11.20;99.90
51557;DHT22;38766;53.194;5.532;2023-11-19T04:12:49;11.20;99.90
51557;DHT22;38766;53.194;5.532;2023-11-19T04:15:15;11.20;99.90
51557;DHT22;38766;53.194;5.532;2023-11-19T04:17:41;11.20;99.90
51557;DHT22;38766;53.194;5.532;2023-11-19T04:20:07;11.30;99.90
51557;DHT22;38766;53.194;5.532;2023-11-19T04:22:37;11.30;99.90
51557;DHT22;38766;53.194;5.532;2023-11-19T04:25:03;11.30;99.90
51557;DHT22;38766;53.194;5.532;2023-11-19T04:27:31;11.30;99.90
51557;DHT22;38766;53.194;5.532;2023-11-19T04:29:56;11.30;99.90
51557;DHT22;38766;53.194;5.532;2023-11-19T04:32:22;11.30;99.90
51557;DHT22;38766;53.194;5.532;2023-11-19T04:34:48;11.30;99.90
51557;DHT22;38766;53.194;5.532;2023-11-19T04:37:13;11.30;99.90
51557;DHT22;38766;53.194;5.532;2023-11-19T04:39:39;11.30;99.90
51557;DHT22;38766;53.194;5.532;2023-11-19T04:42:05;11.20;99.90
51557;DHT22;38766;53.194;5.532;2023-11-19T04:44:31;11.20;99.90
51557;DHT22;38766;53.194;5.532;2023-11-19T04:46:57;11.20;99.90
51557;DHT22;38766;53.194;5.532;2023-11-19T04:49:23;11.20;99.90
51557;DHT22;38766;53.194;5.532;2023-11-19T04:51:49;11.20;99.90
51557;DHT22;38766;53.194;5.532;2023-11-19T04:54:17;11.20;99.90
51557;DHT22;38766;53.194;5.532;2023-11-19T04:56:47;11.20;99.90
51557;DHT22;38766;53.194;5.532;2023-11-19T04:59:12;11.30;99.90
51557;DHT22;38766;53.194;5.532;2023-11-19T05:01:38;11.30;99.90
51557;DHT22;38766;53.194;5.532;2023-11-19T05:04:04;11.30;99.90
51557;DHT22;38766;53.194;5.532;2023-11-19T05:06:30;11.30;99.90
51557;DHT22;38766;53.194;5.532;2023-11-19T05:08:56;11.30;99.90
51557;DHT22;38766;53.194;5.532;2023-11-19T05:11:22;11.30;99.90
51557;DHT22;38766;53.194;5.532;2023-11-19T05:13:48;11.40;99.90
51557;DHT22;38766;53.194;5.532;2023-11-19T05:16:13;11.30;99.90
51557;DHT22;38766;53.194;5.532;2023-11-19T05:18:40;11.30;99.90
51557;DHT22;38766;53.194;5.532;2023-11-19T05:21:06;11.40;99.90
51557;DHT22;38766;53.194;5.532;2023-11-19T05:23:34;11.40;99.90
51557;DHT22;38766;53.194;5.532;2023-11-19T05:26:03;11.40;99.90
51557;DHT22;38766;53.194;5.532;2023-11-19T05:28:29;11.40;99.90
51557;DHT22;38766;53.194;5.532;2023-11-19T05:30:55;11.40;99.90
51557;DHT22;38766;53.194;5.532;2023-11-19T05:33:21;11.40;99.90
51557;DHT22;38766;53.194;5.532;2023-11-19T05:35:47;11.50;99.90
51557;DHT22;38766;53.194;5.532;2023-11-19T05:38:12;11.40;99.90
51557;DHT22;38766;53.194;5.532;2023-11-19T05:40:38;11.30;99.90
51557;DHT22;38766;53.194;5.532;2023-11-19T05:43:04;11.40;99.90
51557;DHT22;38766;53.194;5.532;2023-11-19T05:45:31;11.40;99.90
51557;DHT22;38766;53.194;5.532;2023-11-19T05:47:57;11.40;99.90
51557;DHT22;38766;53.194;5.532;2023-11-19T05:50:23;11.40;99.90
51557;DHT22;38766;53.194;5.532;2023-11-19T05:52:49;11.40;99.90
51557;DHT22;38766;53.194;5.532;2023-11-19T05:55:15;11.40;99.90
51557;DHT22;38766;53.194;5.532;2023-11-19T05:57:40;11.40;99.90
51557;DHT22;38766;53.194;5.532;2023-11-19T06:00:07;11.40;99.90
51557;DHT22;38766;53.194;5.532;2023-11-19T06:02:34;11.40;99.90
51557;DHT22;38766;53.194;5.532;2023-11-19T06:05:00;11.40;99.90
51557;DHT22;38766;53.194;5.532;2023-11-19T06:07:27;11.40;99.90
51557;DHT22;38766;53.194;5.532;2023-11-19T06:09:53;11.40;99.90
51557;DHT22;38766;53.194;5.532;2023-11-19T06:12:19;11.40;99.90
51557;DHT22;38766;53.194;5.532;2023-11-19T06:14:45;11.30;99.90
51557;DHT22;38766;53.194;5.532;2023-11-19T06:17:10;11.40;99.90
51557;DHT22;38766;53.194;5.532;2023-11-19T06:19:37;11.30;99.90
51557;DHT22;38766;53.194;5.532;2023-11-19T06:22:03;11.40;99.90
51557;DHT22;38766;53.194;5.532;2023-11-19T06:24:29;11.40;99.90
51557;DHT22;38766;53.194;5.532;2023-11-19T06:26:57;11.30;99.90
51557;DHT22;38766;53.194;5.532;2023-11-19T06:29:23;11.40;99.90
51557;DHT22;38766;53.194;5.532;2023-11-19T06:31:49;11.40;99.90
51557;DHT22;38766;53.194;5.532;2023-11-19T06:34:15;11.40;99.90
51557;DHT22;38766;53.194;5.532;2023-11-19T06:36:41;11.30;99.90
51557;DHT22;38766;53.194;5.532;2023-11-19T06:39:09;11.30;99.90
51557;DHT22;38766;53.194;5.532;2023-11-19T06:41:34;11.40;99.90
51557;DHT22;38766;53.194;5.532;2023-11-19T06:44:00;11.40;99.90
51557;DHT22;38766;53.194;5.532;2023-11-19T06:46:25;11.40;99.90
51557;DHT22;38766;53.194;5.532;2023-11-19T06:48:51;11.40;99.90
51557;DHT22;38766;53.194;5.532;2023-11-19T06:51:17;11.40;99.90
51557;DHT22;38766;53.194;5.532;2023-11-19T06:53:43;11.40;99.90
51557;DHT22;38766;53.194;5.532;2023-11-19T06:56:23;11.40;99.90
51557;DHT22;38766;53.194;5.532;2023-11-19T06:58:52;11.40;99.90
51557;DHT22;38766;53.194;5.532;2023-11-19T07:01:19;11.40;99.90
51557;DHT22;38766;53.194;5.532;2023-11-19T07:03:47;11.50;99.90
51557;DHT22;38766;53.194;5.532;2023-11-19T07:06:13;11.40;99.90
51557;DHT22;38766;53.194;5.532;2023-11-19T07:08:41;11.40;99.90
51557;DHT22;38766;53.194;5.532;2023-11-19T07:11:07;11.30;99.90
51557;DHT22;38766;53.194;5.532;2023-11-19T07:13:35;11.30;99.90
51557;DHT22;38766;53.194;5.532;2023-11-19T07:16:01;11.30;99.90
51557;DHT22;38766;53.194;5.532;2023-11-19T07:18:26;11.40;99.90
51557;DHT22;38766;53.194;5.532;2023-11-19T07:20:52;11.30;99.90
51557;DHT22;38766;53.194;5.532;2023-11-19T07:23:19;11.30;99.90
51557;DHT22;38766;53.194;5.532;2023-11-19T07:25:44;11.30;99.90
51557;DHT22;38766;53.194;5.532;2023-11-19T07:28:13;11.30;99.90
51557;DHT22;38766;53.194;5.532;2023-11-19T07:30:39;11.40;99.90
51557;DHT22;38766;53.194;5.532;2023-11-19T07:33:05;11.40;99.90
51557;DHT22;38766;53.194;5.532;2023-11-19T07:35:32;11.40;99.90
51557;DHT22;38766;53.194;5.532;2023-11-19T07:37:57;11.40;99.90
51557;DHT22;38766;53.194;5.532;2023-11-19T07:40:24;11.40;99.90
51557;DHT22;38766;53.194;5.532;2023-11-19T07:42:49;11.50;99.90
51557;DHT22;38766;53.194;5.532;2023-11-19T07:45:16;11.40;99.90
51557;DHT22;38766;53.194;5.532;2023-11-19T07:47:42;11.40;99.90
51557;DHT22;38766;53.194;5.532;2023-11-19T07:50:10;11.40;99.90
51557;DHT22;38766;53.194;5.532;2023-11-19T07:52:38;11.40;99.90
51557;DHT22;38766;53.194;5.532;2023-11-19T07:55:04;11.40;99.90
51557;DHT22;38766;53.194;5.532;2023-11-19T07:57:30;11.50;99.90
51557;DHT22;38766;53.194;5.532;2023-11-19T07:59:57;11.50;99.90
51557;DHT22;38766;53.194;5.532;2023-11-19T08:02:22;11.50;99.90
51557;DHT22;38766;53.194;5.532;2023-11-19T08:04:49;11.50;99.90
51557;DHT22;38766;53.194;5.532;2023-11-19T08:07:17;11.50;99.90
51557;DHT22;38766;53.194;5.532;2023-11-19T08:09:44;11.50;99.90
51557;DHT22;38766;53.194;5.532;2023-11-19T08:12:10;11.50;99.90
51557;DHT22;38766;53.194;5.532;2023-11-19T08:14:36;11.50;99.90
51557;DHT22;38766;53.194;5.532;2023-11-19T08:17:02;11.50;99.90
51557;DHT22;38766;53.194;5.532;2023-11-19T08:19:28;11.50;99.90
51557;DHT22;38766;53.194;5.532;2023-11-19T08:21:54;11.50;99.90
51557;DHT22;38766;53.194;5.532;2023-11-19T08:24:20;11.60;99.90
51557;DHT22;38766;53.194;5.532;2023-11-19T08:26:45;11.60;99.90
51557;DHT22;38766;53.194;5.532;2023-11-19T08:29:11;11.60;99.90
51557;DHT22;38766;53.194;5.532;2023-11-19T08:31:36;11.60;99.90
51557;DHT22;38766;53.194;5.532;2023-11-19T08:34:02;11.60;99.90
51557;DHT22;38766;53.194;5.532;2023-11-19T08:36:28;11.70;99.90
51557;DHT22;38766;53.194;5.532;2023-11-19T08:38:54;11.70;99.90
51557;DHT22;38766;53.194;5.532;2023-11-19T08:41:22;11.70;99.90
51557;DHT22;38766;53.194;5.532;2023-11-19T08:43:47;11.70;99.90
51557;DHT22;38766;53.194;5.532;2023-11-19T08:46:13;11.70;99.90
51557;DHT22;38766;53.194;5.532;2023-11-19T08:48:39;11.70;99.90
51557;DHT22;38766;53.194;5.532;2023-11-19T08:51:05;11.70;99.90
51557;DHT22;38766;53.194;5.532;2023-11-19T08:53:31;11.70;99.90
51557;DHT22;38766;53.194;5.532;2023-11-19T08:55:56;11.70;99.90
51557;DHT22;38766;53.194;5.532;2023-11-19T08:58:22;11.80;99.90
51557;DHT22;38766;53.194;5.532;2023-11-19T09:00:47;11.80;99.90
51557;DHT22;38766;53.194;5.532;2023-11-19T09:03:13;11.80;99.90
51557;DHT22;38766;53.194;5.532;2023-11-19T09:06:00;11.80;99.90
51557;DHT22;38766;53.194;5.532;2023-11-19T09:08:25;11.80;99.90
51557;DHT22;38766;53.194;5.532;2023-11-19T09:10:51;11.80;99.90
51557;DHT22;38766;53.194;5.532;2023-11-19T09:13:17;11.90;99.90
51557;DHT22;38766;53.194;5.532;2023-11-19T09:15:42;11.90;99.90
51557;DHT22;38766;53.194;5.532;2023-11-19T09:18:08;11.90;99.90
51557;DHT22;38766;53.194;5.532;2023-11-19T09:20:33;12.00;99.90
51557;DHT22;38766;53.194;5.532;2023-11-19T09:23:04;12.00;99.90
51557;DHT22;38766;53.194;5.532;2023-11-19T09:25:30;12.00;99.90
51557;DHT22;38766;53.194;5.532;2023-11-19T09:27:56;12.00;99.90
51557;DHT22;38766;53.194;5.532;2023-11-19T09:30:22;12.10;99.90
51557;DHT22;38766;53.194;5.532;2023-11-19T09:32:48;12.10;99.90
51557;DHT22;38766;53.194;5.532;2023-11-19T09:35:13;12.10;99.90
51557;DHT22;38766;53.194;5.532;2023-11-19T09:37:40;12.20;99.90
51557;DHT22;38766;53.194;5.532;2023-11-19T09:40:07;12.20;99.90
51557;DHT22;38766;53.194;5.532;2023-11-19T09:42:45;12.30;99.90
51557;DHT22;38766;53.194;5.532;2023-11-19T09:45:15;12.30;99.90
51557;DHT22;38766;53.194;5.532;2023-11-19T09:47:46;12.40;99.90
51557;DHT22;38766;53.194;5.532;2023-11-19T09:50:17;12.40;99.90
51557;DHT22;38766;53.194;5.532;2023-11-19T09:52:46;12.40;99.90
51557;DHT22;38766;53.194;5.532;2023-11-19T09:55:12;12.40;99.90
51557;DHT22;38766;53.194;5.532;2023-11-19T09:57:38;12.40;99.90
51557;DHT22;38766;53.194;5.532;2023-11-19T10:00:06;12.40;99.90
51557;DHT22;38766;53.194;5.532;2023-11-19T10:02:34;12.40;99.90
51557;DHT22;38766;53.194;5.532;2023-11-19T10:05:09;12.40;99.90
51557;DHT22;38766;53.194;5.532;2023-11-19T10:07:35;12.30;99.90
51557;DHT22;38766;53.194;5.532;2023-11-19T10:10:02;12.30;99.90
51557;DHT22;38766;53.194;5.532;2023-11-19T10:12:29;12.30;99.90
51557;DHT22;38766;53.194;5.532;2023-11-19T10:14:59;12.30;99.90
51557;DHT22;38766;53.194;5.532;2023-11-19T10:17:42;12.30;99.90
51557;DHT22;38766;53.194;5.532;2023-11-19T10:20:08;12.30;99.90
51557;DHT22;38766;53.194;5.532;2023-11-19T10:22:37;12.30;99.90
51557;DHT22;38766;53.194;5.532;2023-11-19T10:25:04;12.30;99.90
51557;DHT22;38766;53.194;5.532;2023-11-19T10:27:29;12.30;99.90
51557;DHT22;38766;53.194;5.532;2023-11-19T10:29:59;12.30;99.90
51557;DHT22;38766;53.194;5.532;2023-11-19T10:32:25;12.30;99.90
51557;DHT22;38766;53.194;5.532;2023-11-19T10:34:50;12.40;99.90
51557;DHT22;38766;53.194;5.532;2023-11-19T10:37:29;12.50;99.90
51557;DHT22;38766;53.194;5.532;2023-11-19T10:39:58;12.60;99.90
51557;DHT22;38766;53.194;5.532;2023-11-19T10:42:23;12.70;99.90
51557;DHT22;38766;53.194;5.532;2023-11-19T10:44:50;12.80;99.90
51557;DHT22;38766;53.194;5.532;2023-11-19T10:47:18;12.80;99.90
51557;DHT22;38766;53.194;5.532;2023-11-19T10:49:45;12.70;99.90
51557;DHT22;38766;53.194;5.532;2023-11-19T10:52:19;12.70;99.90
51557;DHT22;38766;53.194;5.532;2023-11-19T10:54:49;12.60;99.90
51557;DHT22;38766;53.194;5.532;2023-11-19T10:57:20;12.60;99.90
51557;DHT22;38766;53.194;5.532;2023-11-19T10:59:47;12.60;99.90
51557;DHT22;38766;53.194;5.532;2023-11-19T11:02:17;12.60;99.90
51557;DHT22;38766;53.194;5.532;2023-11-19T11:04:47;12.60;99.90
51557;DHT22;38766;53.194;5.532;2023-11-19T11:07:15;12.50;99.90
51557;DHT22;38766;53.194;5.532;2023-11-19T11:09:44;12.50;99.90
51557;DHT22;38766;53.194;5.532;2023-11-19T11:12:12;12.50;99.90
51557;DHT22;38766;53.194;5.532;2023-11-19T11:14:42;12.50;99.90
51557;DHT22;38766;53.194;5.532;2023-11-19T11:17:09;12.50;99.90
51557;DHT22;38766;53.194;5.532;2023-11-19T11:19:36;12.50;99.90
51557;DHT22;38766;53.194;5.532;2023-11-19T11:22:04;12.50;99.90
51557;DHT22;38766;53.194;5.532;2023-11-19T11:25:04;12.50;99.90
51557;DHT22;38766;53.194;5.532;2023-11-19T11:28:00;12.50;99.90
51557;DHT22;38766;53.194;5.532;2023-11-19T11:31:06;12.50;99.90
51557;DHT22;38766;53.194;5.532;2023-11-19T11:33:58;12.50;99.90
51557;DHT22;38766;53.194;5.532;2023-11-19T11:36:25;12.60;99.90
51557;DHT22;38766;53.194;5.532;2023-11-19T11:38:52;12.70;99.90
51557;DHT22;38766;53.194;5.532;2023-11-19T11:41:22;12.80;99.90
51557;DHT22;38766;53.194;5.532;2023-11-19T11:43:54;12.90;99.90
51557;DHT22;38766;53.194;5.532;2023-11-19T11:49:08;12.90;99.90
51557;DHT22;38766;53.194;5.532;2023-11-19T12:02:17;12.80;99.90
51557;DHT22;38766;53.194;5.532;2023-11-19T12:04:47;12.70;99.90
51557;DHT22;38766;53.194;5.532;2023-11-19T12:07:20;12.70;99.90
51557;DHT22;38766;53.194;5.532;2023-11-19T12:09:51;12.70;99.90
51557;DHT22;38766;53.194;5.532;2023-11-19T12:12:22;12.70;99.90
51557;DHT22;38766;53.194;5.532;2023-11-19T12:15:04;12.70;99.90
51557;DHT22;38766;53.194;5.532;2023-11-19T12:20:05;12.70;99.90
51557;DHT22;38766;53.194;5.532;2023-11-19T12:22:41;12.80;99.90
51557;DHT22;38766;53.194;5.532;2023-11-19T12:25:08;12.80;99.90
51557;DHT22;38766;53.194;5.532;2023-11-19T12:27:47;12.90;99.90
51557;DHT22;38766;53.194;5.532;2023-11-19T12:30:23;13.00;99.90
51557;DHT22;38766;53.194;5.532;2023-11-19T12:32:53;13.10;99.90
51557;DHT22;38766;53.194;5.532;2023-11-19T12:35:22;13.10;99.90
51557;DHT22;38766;53.194;5.532;2023-11-19T12:37:50;13.10;99.90
51557;DHT22;38766;53.194;5.532;2023-11-19T12:40:19;13.10;99.90
51557;DHT22;38766;53.194;5.532;2023-11-19T12:42:46;13.10;99.90
51557;DHT22;38766;53.194;5.532;2023-11-19T12:45:12;13.00;99.90
51557;DHT22;38766;53.194;5.532;2023-11-19T12:47:41;13.00;99.90
51557;DHT22;38766;53.194;5.532;2023-11-19T12:50:08;13.00;99.90
51557;DHT22;38766;53.194;5.532;2023-11-19T12:52:37;13.00;99.90
51557;DHT22;38766;53.194;5.532;2023-11-19T12:55:25;12.90;99.90
51557;DHT22;38766;53.194;5.532;2023-11-19T12:57:52;12.80;99.90
51557;DHT22;38766;53.194;5.532;2023-11-19T13:00:22;12.80;99.90
51557;DHT22;38766;53.194;5.532;2023-11-19T13:02:50;12.80;99.90
51557;DHT22;38766;53.194;5.532;2023-11-19T13:08:05;12.70;99.90
51557;DHT22;38766;53.194;5.532;2023-11-19T13:10:32;12.70;99.90
51557;DHT22;38766;53.194;5.532;2023-11-19T13:13:04;12.60;99.90
51557;DHT22;38766;53.194;5.532;2023-11-19T13:15:31;12.60;99.90
51557;DHT22;38766;53.194;5.532;2023-11-19T13:17:57;12.60;99.90
51557;DHT22;38766;53.194;5.532;2023-11-19T13:20:23;12.50;99.90
51557;DHT22;38766;53.194;5.532;2023-11-19T13:25:21;12.50;99.90
51557;DHT22;38766;53.194;5.532;2023-11-19T13:27:47;12.40;99.90
51557;DHT22;38766;53.194;5.532;2023-11-19T13:30:13;12.50;99.90
51557;DHT22;38766;53.194;5.532;2023-11-19T13:32:39;12.40;99.90
51557;DHT22;38766;53.194;5.532;2023-11-19T13:35:05;12.40;99.90
51557;DHT22;38766;53.194;5.532;2023-11-19T13:37:30;12.40;99.90
51557;DHT22;38766;53.194;5.532;2023-11-19T13:39:56;12.40;99.90
51557;DHT22;38766;53.194;5.532;2023-11-19T13:42:22;12.40;99.90
51557;DHT22;38766;53.194;5.532;2023-11-19T13:44:47;12.40;99.90
51557;DHT22;38766;53.194;5.532;2023-11-19T13:47:13;12.40;99.90
51557;DHT22;38766;53.194;5.532;2023-11-19T13:49:39;12.40;99.90
51557;DHT22;38766;53.194;5.532;2023-11-19T13:52:05;12.30;99.90
51557;DHT22;38766;53.194;5.532;2023-11-19T13:54:31;12.30;99.90
51557;DHT22;38766;53.194;5.532;2023-11-19T13:56:56;12.30;99.90
51557;DHT22;38766;53.194;5.532;2023-11-19T13:59:26;12.30;99.90
51557;DHT22;38766;53.194;5.532;2023-11-19T14:01:52;12.30;99.90
51557;DHT22;38766;53.194;5.532;2023-11-19T14:04:18;12.20;99.90
51557;DHT22;38766;53.194;5.532;2023-11-19T14:06:46;12.20;99.90
51557;DHT22;38766;53.194;5.532;2023-11-19T14:09:12;12.20;99.90
51557;DHT22;38766;53.194;5.532;2023-11-19T14:11:38;12.20;99.90
51557;DHT22;38766;53.194;5.532;2023-11-19T14:14:04;12.20;99.90
51557;DHT22;38766;53.194;5.532;2023-11-19T14:16:29;12.20;99.90
51557;DHT22;38766;53.194;5.532;2023-11-19T14:18:56;12.20;99.90
51557;DHT22;38766;53.194;5.532;2023-11-19T14:21:22;12.20;99.90
51557;DHT22;38766;53.194;5.532;2023-11-19T14:23:47;12.20;99.90
51557;DHT22;38766;53.194;5.532;2023-11-19T14:26:13;12.20;99.90
51557;DHT22;38766;53.194;5.532;2023-11-19T14:28:39;12.20;99.90
51557;DHT22;38766;53.194;5.532;2023-11-19T14:31:05;12.20;99.90
51557;DHT22;38766;53.194;5.532;2023-11-19T14:33:31;12.20;99.90
51557;DHT22;38766;53.194;5.532;2023-11-19T14:35:57;12.10;99.90
51557;DHT22;38766;53.194;5.532;2023-11-19T14:38:23;12.20;99.90
51557;DHT22;38766;53.194;5.532;2023-11-19T14:40:48;12.10;99.90
51557;DHT22;38766;53.194;5.532;2023-11-19T14:43:14;12.20;99.90
51557;DHT22;38766;53.194;5.532;2023-11-19T14:45:40;12.10;99.90
51557;DHT22;38766;53.194;5.532;2023-11-19T14:48:06;12.10;99.90
51557;DHT22;38766;53.194;5.532;2023-11-19T14:50:32;12.10;99.90
51557;DHT22;38766;53.194;5.532;2023-11-19T14:52:57;12.10;99.90
51557;DHT22;38766;53.194;5.532;2023-11-19T14:55:23;12.10;99.90
51557;DHT22;38766;53.194;5.532;2023-11-19T14:57:49;12.10;99.90
51557;DHT22;38766;53.194;5.532;2023-11-19T15:00:16;12.10;99.90
51557;DHT22;38766;53.194;5.532;2023-11-19T15:02:42;12.10;99.90
51557;DHT22;38766;53.194;5.532;2023-11-19T15:05:08;12.10;99.90
51557;DHT22;38766;53.194;5.532;2023-11-19T15:07:37;12.00;99.90
51557;DHT22;38766;53.194;5.532;2023-11-19T15:10:03;12.00;99.90
51557;DHT22;38766;53.194;5.532;2023-11-19T15:12:29;11.90;99.90
51557;DHT22;38766;53.194;5.532;2023-11-19T15:14:55;11.90;99.90
51557;DHT22;38766;53.194;5.532;2023-11-19T15:17:21;11.80;99.90
51557;DHT22;38766;53.194;5.532;2023-11-19T15:19:47;11.80;99.90
51557;DHT22;38766;53.194;5.532;2023-11-19T15:22:13;11.70;99.90
51557;DHT22;38766;53.194;5.532;2023-11-19T15:24:39;11.70;99.90
51557;DHT22;38766;53.194;5.532;2023-11-19T15:27:07;11.70;99.90
51557;DHT22;38766;53.194;5.532;2023-11-19T15:29:35;11.60;99.90
51557;DHT22;38766;53.194;5.532;2023-11-19T15:32:00;11.70;99.90
51557;DHT22;38766;53.194;5.532;2023-11-19T15:34:26;11.70;99.90
51557;DHT22;38766;53.194;5.532;2023-11-19T15:36:52;11.60;99.90
51557;DHT22;38766;53.194;5.532;2023-11-19T15:39:17;11.60;99.90
51557;DHT22;38766;53.194;5.532;2023-11-19T15:41:43;11.60;99.90
51557;DHT22;38766;53.194;5.532;2023-11-19T15:44:09;11.60;99.90
51557;DHT22;38766;53.194;5.532;2023-11-19T15:46:34;11.60;99.90
51557;DHT22;38766;53.194;5.532;2023-11-19T15:49:00;11.60;99.90
51557;DHT22;38766;53.194;5.532;2023-11-19T15:51:26;11.60;99.90